sensor_id;sensor_type;location;lat;lon;timestamp;temperature;humidity
62339;DHT22;48368;53.406;6.214;2023-04-27T00:00:02;5.80;99.90
62339;DHT22;48368;53.406;6.214;2023-04-27T00:02:31;5.70;99.90
62339;DHT22;48368;53.406;6.214;2023-04-27T00:04:57;5.70;99.90
62339;DHT22;48368;53.406;6.214;2023-04-27T00:07:22;5.60;99.90
62339;DHT22;48368;53.406;6.214;2023-04-27T00:09:48;5.60;99.90
62339;DHT22;48368;53.406;6.214;2023-04-27T00:12:14;5.60;99.90
62339;DHT22;48368;53.406;6.214;2023-04-27T00:14:39;5.60;99.90
62339;DHT22;48368;53.406;6.214;2023-04-27T00:17:05;5.50;99.90
62339;DHT22;48368;53.406;6.214;2023-04-27T00:19:31;5.50;99.90
62339;DHT22;48368;53.406;6.214;2023-04-27T00:21:56;5.50;99.90
62339;DHT22;48368;53.406;6.214;2023-04-27T00:24:24;5.40;99.90
62339;DHT22;48368;53.406;6.214;2023-04-27T00:26:50;5.40;99.90
62339;DHT22;48368;53.406;6.214;2023-04-27T00:29:15;5.30;99.90
62339;DHT22;48368;53.406;6.214;2023-04-27T00:31:41;5.30;99.90
62339;DHT22;48368;53.406;6.214;2023-04-27T00:34:07;5.30;99.90
62339;DHT22;48368;53.406;6.214;2023-04-27T00:36:33;5.30;99.90
62339;DHT22;48368;53.406;6.214;2023-04-27T00:38:59;5.30;99.90
62339;DHT22;48368;53.406;6.214;2023-04-27T00:41:25;5.30;99.90
62339;DHT22;48368;53.406;6.214;2023-04-27T00:43:50;5.20;99.90
62339;DHT22;48368;53.406;6.214;2023-04-27T00:46:16;5.20;99.90
62339;DHT22;48368;53.406;6.214;2023-04-27T00:48:44;5.10;99.90
62339;DHT22;48368;53.406;6.214;2023-04-27T00:51:10;5.10;99.90
62339;DHT22;48368;53.406;6.214;2023-04-27T00:53:36;5.10;99.90
62339;DHT22;48368;53.406;6.214;2023-04-27T00:56:03;5.10;99.90
62339;DHT22;48368;53.406;6.214;2023-04-27T00:58:29;5.00;99.90
62339;DHT22;48368;53.406;6.214;2023-04-27T01:00:55;5.00;99.90
62339;DHT22;48368;53.406;6.214;2023-04-27T01:03:21;4.90;99.90
62339;DHT22;48368;53.406;6.214;2023-04-27T01:05:47;4.90;99.90
62339;DHT22;48368;53.406;6.214;2023-04-27T01:08:12;4.80;99.90
62339;DHT22;48368;53.406;6.214;2023-04-27T01:10:38;4.70;99.90
62339;DHT22;48368;53.406;6.214;2023-04-27T01:13:04;4.60;99.90
62339;DHT22;48368;53.406;6.214;2023-04-27T01:15:30;4.60;99.90
62339;DHT22;48368;53.406;6.214;2023-04-27T01:17:59;4.60;99.90
62339;DHT22;48368;53.406;6.214;2023-04-27T01:20:25;4.50;99.90
62339;DHT22;48368;53.406;6.214;2023-04-27T01:22:55;4.40;99.90
62339;DHT22;48368;53.406;6.214;2023-04-27T01:25:21;4.40;99.90
62339;DHT22;48368;53.406;6.214;2023-04-27T01:27:47;4.30;99.90
62339;DHT22;48368;53.406;6.214;2023-04-27T01:30:13;4.30;99.90
62339;DHT22;48368;53.406;6.214;2023-04-27T01:32:38;4.30;99.90
62339;DHT22;48368;53.406;6.214;2023-04-27T01:35:04;4.30;99.90
62339;DHT22;48368;53.406;6.214;2023-04-27T01:37:30;4.20;99.90
62339;DHT22;48368;53.406;6.214;2023-04-27T01:39:56;4.20;99.90
62339;DHT22;48368;53.406;6.214;2023-04-27T01:42:22;4.20;99.90
62339;DHT22;48368;53.406;6.214;2023-04-27T01:44:47;4.20;99.90
62339;DHT22;48368;53.406;6.214;2023-04-27T01:47:16;4.10;99.90
62339;DHT22;48368;53.406;6.214;2023-04-27T01:49:42;4.10;99.90
62339;DHT22;48368;53.406;6.214;2023-04-27T01:52:08;4.00;99.90
62339;DHT22;48368;53.406;6.214;2023-04-27T01:54:34;4.00;99.90
62339;DHT22;48368;53.406;6.214;2023-04-27T01:57:00;3.90;99.90
62339;DHT22;48368;53.406;6.214;2023-04-27T01:59:26;3.90;99.90
62339;DHT22;48368;53.406;6.214;2023-04-27T02:01:53;3.90;99.90
62339;DHT22;48368;53.406;6.214;2023-04-27T02:04:19;3.80;99.90
62339;DHT22;48368;53.406;6.214;2023-04-27T02:06:45;3.90;99.90
62339;DHT22;48368;53.406;6.214;2023-04-27T02:09:11;3.80;99.90
62339;DHT22;48368;53.406;6.214;2023-04-27T02:11:37;3.80;99.90
62339;DHT22;48368;53.406;6.214;2023-04-27T02:14:03;3.80;99.90
62339;DHT22;48368;53.406;6.214;2023-04-27T02:16:28;3.70;99.90
62339;DHT22;48368;53.406;6.214;2023-04-27T02:18:54;3.80;99.90
62339;DHT22;48368;53.406;6.214;2023-04-27T02:21:20;3.70;99.90
62339;DHT22;48368;53.406;6.214;2023-04-27T02:23:46;3.70;99.90
62339;DHT22;48368;53.406;6.214;2023-04-27T02:26:17;3.60;99.90
62339;DHT22;48368;53.406;6.214;2023-04-27T02:28:44;3.60;99.90
62339;DHT22;48368;53.406;6.214;2023-04-27T02:31:10;3.60;99.90
62339;DHT22;48368;53.406;6.214;2023-04-27T02:33:36;3.60;99.90
62339;DHT22;48368;53.406;6.214;2023-04-27T02:36:02;3.50;99.90
62339;DHT22;48368;53.406;6.214;2023-04-27T02:38:28;3.50;99.90
62339;DHT22;48368;53.406;6.214;2023-04-27T02:40:54;3.50;99.90
62339;DHT22;48368;53.406;6.214;2023-04-27T02:43:20;3.40;99.90
62339;DHT22;48368;53.406;6.214;2023-04-27T02:45:46;3.50;99.90
62339;DHT22;48368;53.406;6.214;2023-04-27T02:48:11;3.40;99.90
62339;DHT22;48368;53.406;6.214;2023-04-27T02:50:44;3.40;99.90
62339;DHT22;48368;53.406;6.214;2023-04-27T02:53:10;3.40;99.90
62339;DHT22;48368;53.406;6.214;2023-04-27T02:55:36;3.40;99.90
62339;DHT22;48368;53.406;6.214;2023-04-27T02:58:02;3.30;99.90
62339;DHT22;48368;53.406;6.214;2023-04-27T03:00:28;3.40;99.90
62339;DHT22;48368;53.406;6.214;2023-04-27T03:02:54;3.40;99.90
62339;DHT22;48368;53.406;6.214;2023-04-27T03:05:20;3.30;99.90
62339;DHT22;48368;53.406;6.214;2023-04-27T03:07:46;3.20;99.90
62339;DHT22;48368;53.406;6.214;2023-04-27T03:10:12;3.20;99.90
62339;DHT22;48368;53.406;6.214;2023-04-27T03:12:38;3.20;99.90
62339;DHT22;48368;53.406;6.214;2023-04-27T03:15:03;3.20;99.90
62339;DHT22;48368;53.406;6.214;2023-04-27T03:17:30;3.20;99.90
62339;DHT22;48368;53.406;6.214;2023-04-27T03:19:55;3.20;99.90
62339;DHT22;48368;53.406;6.214;2023-04-27T03:22:21;3.20;99.90
62339;DHT22;48368;53.406;6.214;2023-04-27T03:24:47;3.20;99.90
62339;DHT22;48368;53.406;6.214;2023-04-27T03:27:15;3.20;99.90
62339;DHT22;48368;53.406;6.214;2023-04-27T03:29:41;3.20;99.90
62339;DHT22;48368;53.406;6.214;2023-04-27T03:32:07;3.20;99.90
62339;DHT22;48368;53.406;6.214;2023-04-27T03:34:32;3.20;99.90
62339;DHT22;48368;53.406;6.214;2023-04-27T03:36:58;3.20;99.90
62339;DHT22;48368;53.406;6.214;2023-04-27T03:39:23;3.20;99.90
62339;DHT22;48368;53.406;6.214;2023-04-27T03:41:49;3.20;99.90
62339;DHT22;48368;53.406;6.214;2023-04-27T03:44:15;3.20;99.90
62339;DHT22;48368;53.406;6.214;2023-04-27T03:46:40;3.20;99.90
62339;DHT22;48368;53.406;6.214;2023-04-27T03:49:06;3.20;99.90
62339;DHT22;48368;53.406;6.214;2023-04-27T03:51:31;3.20;99.90
62339;DHT22;48368;53.406;6.214;2023-04-27T03:53:58;3.20;99.90
62339;DHT22;48368;53.406;6.214;2023-04-27T03:56:24;3.20;99.90
62339;DHT22;48368;53.406;6.214;2023-04-27T03:58:49;3.10;99.90
62339;DHT22;48368;53.406;6.214;2023-04-27T04:01:15;3.10;99.90
62339;DHT22;48368;53.406;6.214;2023-04-27T04:03:43;3.10;99.90
62339;DHT22;48368;53.406;6.214;2023-04-27T04:06:09;3.10;99.90
62339;DHT22;48368;53.406;6.214;2023-04-27T04:08:35;3.10;99.90
62339;DHT22;48368;53.406;6.214;2023-04-27T04:11:01;3.10;99.90
62339;DHT22;48368;53.406;6.214;2023-04-27T04:13:27;3.10;99.90
62339;DHT22;48368;53.406;6.214;2023-04-27T04:16:07;3.10;99.90
62339;DHT22;48368;53.406;6.214;2023-04-27T04:18:33;3.00;99.90
62339;DHT22;48368;53.406;6.214;2023-04-27T04:20:59;3.00;99.90
62339;DHT22;48368;53.406;6.214;2023-04-27T04:23:26;3.00;99.90
62339;DHT22;48368;53.406;6.214;2023-04-27T04:25:56;3.10;99.90
62339;DHT22;48368;53.406;6.214;2023-04-27T04:28:27;3.10;99.90
62339;DHT22;48368;53.406;6.214;2023-04-27T04:30:53;3.10;99.90
62339;DHT22;48368;53.406;6.214;2023-04-27T04:33:19;3.10;99.90
62339;DHT22;48368;53.406;6.214;2023-04-27T04:35:44;3.10;99.90
62339;DHT22;48368;53.406;6.214;2023-04-27T04:38:11;3.10;99.90
62339;DHT22;48368;53.406;6.214;2023-04-27T04:40:38;3.10;99.90
62339;DHT22;48368;53.406;6.214;2023-04-27T04:43:04;3.20;99.90
62339;DHT22;48368;53.406;6.214;2023-04-27T04:45:29;3.20;99.90
62339;DHT22;48368;53.406;6.214;2023-04-27T04:47:55;3.20;99.90
62339;DHT22;48368;53.406;6.214;2023-04-27T04:50:21;3.30;99.90
62339;DHT22;48368;53.406;6.214;2023-04-27T04:52:48;3.50;99.90
62339;DHT22;48368;53.406;6.214;2023-04-27T04:55:14;3.50;99.90
62339;DHT22;48368;53.406;6.214;2023-04-27T04:57:39;3.60;99.90
62339;DHT22;48368;53.406;6.214;2023-04-27T05:00:05;3.80;99.90
62339;DHT22;48368;53.406;6.214;2023-04-27T05:02:36;3.90;99.90
62339;DHT22;48368;53.406;6.214;2023-04-27T05:05:01;4.00;99.90
62339;DHT22;48368;53.406;6.214;2023-04-27T05:07:27;4.10;99.90
62339;DHT22;48368;53.406;6.214;2023-04-27T05:09:53;4.20;99.90
62339;DHT22;48368;53.406;6.214;2023-04-27T05:12:19;4.40;99.90
62339;DHT22;48368;53.406;6.214;2023-04-27T05:14:44;4.50;99.90
62339;DHT22;48368;53.406;6.214;2023-04-27T05:17:10;4.50;99.90
62339;DHT22;48368;53.406;6.214;2023-04-27T05:19:36;4.60;99.90
62339;DHT22;48368;53.406;6.214;2023-04-27T05:22:02;4.70;99.90
62339;DHT22;48368;53.406;6.214;2023-04-27T05:24:28;4.70;99.90
62339;DHT22;48368;53.406;6.214;2023-04-27T05:26:53;4.70;99.90
62339;DHT22;48368;53.406;6.214;2023-04-27T05:29:20;4.70;99.90
62339;DHT22;48368;53.406;6.214;2023-04-27T05:31:46;4.70;99.90
62339;DHT22;48368;53.406;6.214;2023-04-27T05:34:11;4.70;99.90
62339;DHT22;48368;53.406;6.214;2023-04-27T05:36:38;4.70;99.90
62339;DHT22;48368;53.406;6.214;2023-04-27T05:39:03;4.90;99.90
62339;DHT22;48368;53.406;6.214;2023-04-27T05:41:29;5.00;99.90
62339;DHT22;48368;53.406;6.214;2023-04-27T05:43:55;5.10;99.90
62339;DHT22;48368;53.406;6.214;2023-04-27T05:46:20;5.30;99.90
62339;DHT22;48368;53.406;6.214;2023-04-27T05:48:46;5.50;99.90
62339;DHT22;48368;53.406;6.214;2023-04-27T05:51:12;5.60;99.90
62339;DHT22;48368;53.406;6.214;2023-04-27T05:53:38;5.70;99.90
62339;DHT22;48368;53.406;6.214;2023-04-27T05:56:04;5.90;99.90
62339;DHT22;48368;53.406;6.214;2023-04-27T05:58:31;6.00;99.90
62339;DHT22;48368;53.406;6.214;2023-04-27T06:00:58;6.20;99.90
62339;DHT22;48368;53.406;6.214;2023-04-27T06:03:24;6.30;99.90
62339;DHT22;48368;53.406;6.214;2023-04-27T06:05:56;6.50;99.90
62339;DHT22;48368;53.406;6.214;2023-04-27T06:08:22;6.60;99.90
62339;DHT22;48368;53.406;6.214;2023-04-27T06:10:49;6.80;99.90
62339;DHT22;48368;53.406;6.214;2023-04-27T06:13:15;7.00;99.90
62339;DHT22;48368;53.406;6.214;2023-04-27T06:15:41;7.10;99.90
62339;DHT22;48368;53.406;6.214;2023-04-27T06:18:07;7.20;99.90
62339;DHT22;48368;53.406;6.214;2023-04-27T06:20:33;7.30;99.90
62339;DHT22;48368;53.406;6.214;2023-04-27T06:22:59;7.30;99.90
62339;DHT22;48368;53.406;6.214;2023-04-27T06:25:25;7.30;99.90
62339;DHT22;48368;53.406;6.214;2023-04-27T06:27:55;7.10;99.90
62339;DHT22;48368;53.406;6.214;2023-04-27T06:30:21;7.00;99.90
62339;DHT22;48368;53.406;6.214;2023-04-27T06:32:47;6.90;99.90
62339;DHT22;48368;53.406;6.214;2023-04-27T06:35:13;6.90;99.90
62339;DHT22;48368;53.406;6.214;2023-04-27T06:37:38;6.90;99.90
62339;DHT22;48368;53.406;6.214;2023-04-27T06:40:05;7.10;99.90
62339;DHT22;48368;53.406;6.214;2023-04-27T06:42:31;7.20;99.90
62339;DHT22;48368;53.406;6.214;2023-04-27T06:44:56;7.40;99.90
62339;DHT22;48368;53.406;6.214;2023-04-27T06:47:23;7.60;99.90
62339;DHT22;48368;53.406;6.214;2023-04-27T06:49:49;7.80;99.90
62339;DHT22;48368;53.406;6.214;2023-04-27T06:52:15;8.00;99.90
62339;DHT22;48368;53.406;6.214;2023-04-27T06:54:41;8.00;99.90
62339;DHT22;48368;53.406;6.214;2023-04-27T06:57:06;7.90;99.90
62339;DHT22;48368;53.406;6.214;2023-04-27T06:59:32;7.90;99.90
62339;DHT22;48368;53.406;6.214;2023-04-27T07:01:58;7.80;99.90
62339;DHT22;48368;53.406;6.214;2023-04-27T07:04:23;7.90;99.90
62339;DHT22;48368;53.406;6.214;2023-04-27T07:06:49;7.90;99.90
62339;DHT22;48368;53.406;6.214;2023-04-27T07:09:15;8.00;99.90
62339;DHT22;48368;53.406;6.214;2023-04-27T07:11:40;8.00;99.90
62339;DHT22;48368;53.406;6.214;2023-04-27T07:14:06;8.00;99.90
62339;DHT22;48368;53.406;6.214;2023-04-27T07:16:32;8.00;99.90
62339;DHT22;48368;53.406;6.214;2023-04-27T07:18:57;8.00;99.90
62339;DHT22;48368;53.406;6.214;2023-04-27T07:21:23;8.00;99.90
62339;DHT22;48368;53.406;6.214;2023-04-27T07:23:48;8.10;99.90
62339;DHT22;48368;53.406;6.214;2023-04-27T07:26:14;8.50;99.90
62339;DHT22;48368;53.406;6.214;2023-04-27T07:28:40;8.50;99.90
62339;DHT22;48368;53.406;6.214;2023-04-27T07:31:06;8.60;99.90
62339;DHT22;48368;53.406;6.214;2023-04-27T07:33:32;8.80;99.90
62339;DHT22;48368;53.406;6.214;2023-04-27T07:36:01;9.00;99.90
62339;DHT22;48368;53.406;6.214;2023-04-27T07:38:27;9.30;99.90
62339;DHT22;48368;53.406;6.214;2023-04-27T07:40:56;9.60;99.90
62339;DHT22;48368;53.406;6.214;2023-04-27T07:43:22;9.70;99.90
62339;DHT22;48368;53.406;6.214;2023-04-27T07:45:50;9.80;99.90
62339;DHT22;48368;53.406;6.214;2023-04-27T07:48:16;9.70;99.90
62339;DHT22;48368;53.406;6.214;2023-04-27T07:50:41;9.80;99.90
62339;DHT22;48368;53.406;6.214;2023-04-27T07:53:07;10.10;99.90
62339;DHT22;48368;53.406;6.214;2023-04-27T07:55:32;10.20;99.90
62339;DHT22;48368;53.406;6.214;2023-04-27T07:57:58;10.40;99.90
62339;DHT22;48368;53.406;6.214;2023-04-27T08:00:24;10.40;99.90
62339;DHT22;48368;53.406;6.214;2023-04-27T08:02:52;10.70;99.90
62339;DHT22;48368;53.406;6.214;2023-04-27T08:05:18;10.80;99.90
62339;DHT22;48368;53.406;6.214;2023-04-27T08:07:44;10.90;99.90
62339;DHT22;48368;53.406;6.214;2023-04-27T08:10:10;10.90;99.90
62339;DHT22;48368;53.406;6.214;2023-04-27T08:12:35;10.70;99.90
62339;DHT22;48368;53.406;6.214;2023-04-27T08:15:01;10.50;99.90
62339;DHT22;48368;53.406;6.214;2023-04-27T08:17:26;10.20;99.90
62339;DHT22;48368;53.406;6.214;2023-04-27T08:19:52;10.20;99.90
62339;DHT22;48368;53.406;6.214;2023-04-27T08:22:18;10.00;99.90
62339;DHT22;48368;53.406;6.214;2023-04-27T08:24:44;10.00;99.90
62339;DHT22;48368;53.406;6.214;2023-04-27T08:27:09;10.10;99.90
62339;DHT22;48368;53.406;6.214;2023-04-27T08:29:35;10.10;99.90
62339;DHT22;48368;53.406;6.214;2023-04-27T08:32:02;10.10;99.90
62339;DHT22;48368;53.406;6.214;2023-04-27T08:34:28;10.10;99.90
62339;DHT22;48368;53.406;6.214;2023-04-27T08:36:54;10.30;99.90
62339;DHT22;48368;53.406;6.214;2023-04-27T08:39:20;10.30;99.90
62339;DHT22;48368;53.406;6.214;2023-04-27T08:41:46;10.50;99.90
62339;DHT22;48368;53.406;6.214;2023-04-27T08:44:11;10.60;99.90
62339;DHT22;48368;53.406;6.214;2023-04-27T08:46:37;10.70;99.90
62339;DHT22;48368;53.406;6.214;2023-04-27T08:49:03;10.70;99.90
62339;DHT22;48368;53.406;6.214;2023-04-27T08:51:31;10.90;99.90
62339;DHT22;48368;53.406;6.214;2023-04-27T08:53:57;11.00;99.90
62339;DHT22;48368;53.406;6.214;2023-04-27T08:56:25;11.00;99.90
62339;DHT22;48368;53.406;6.214;2023-04-27T08:58:51;10.90;99.90
62339;DHT22;48368;53.406;6.214;2023-04-27T09:01:17;10.80;99.90
62339;DHT22;48368;53.406;6.214;2023-04-27T09:03:43;10.80;99.90
62339;DHT22;48368;53.406;6.214;2023-04-27T09:06:12;10.90;99.90
62339;DHT22;48368;53.406;6.214;2023-04-27T09:08:44;10.90;99.90
62339;DHT22;48368;53.406;6.214;2023-04-27T09:11:11;10.90;99.90
62339;DHT22;48368;53.406;6.214;2023-04-27T09:13:38;10.90;99.90
62339;DHT22;48368;53.406;6.214;2023-04-27T09:16:04;10.80;99.90
62339;DHT22;48368;53.406;6.214;2023-04-27T09:18:33;10.80;99.90
62339;DHT22;48368;53.406;6.214;2023-04-27T09:20:59;10.80;99.90
62339;DHT22;48368;53.406;6.214;2023-04-27T09:25:53;10.80;99.90
62339;DHT22;48368;53.406;6.214;2023-04-27T09:28:21;10.90;99.90
62339;DHT22;48368;53.406;6.214;2023-04-27T09:30:54;10.90;99.90
62339;DHT22;48368;53.406;6.214;2023-04-27T09:35:49;11.10;99.90
62339;DHT22;48368;53.406;6.214;2023-04-27T09:38:19;11.10;99.90
62339;DHT22;48368;53.406;6.214;2023-04-27T09:40:46;11.30;99.90
62339;DHT22;48368;53.406;6.214;2023-04-27T09:43:12;11.20;99.90
62339;DHT22;48368;53.406;6.214;2023-04-27T09:45:38;11.30;99.90
62339;DHT22;48368;53.406;6.214;2023-04-27T09:48:05;11.30;99.90
62339;DHT22;48368;53.406;6.214;2023-04-27T09:50:35;11.30;99.90
62339;DHT22;48368;53.406;6.214;2023-04-27T09:53:02;11.40;99.90
62339;DHT22;48368;53.406;6.214;2023-04-27T09:55:35;11.40;99.90
62339;DHT22;48368;53.406;6.214;2023-04-27T10:01:17;11.20;99.90
62339;DHT22;48368;53.406;6.214;2023-04-27T10:08:39;10.90;99.90
62339;DHT22;48368;53.406;6.214;2023-04-27T10:11:13;10.90;99.90
62339;DHT22;48368;53.406;6.214;2023-04-27T10:13:50;10.90;99.90
62339;DHT22;48368;53.406;6.214;2023-04-27T10:16:18;11.00;99.90
62339;DHT22;48368;53.406;6.214;2023-04-27T10:18:54;11.00;99.90
62339;DHT22;48368;53.406;6.214;2023-04-27T10:21:20;11.00;99.90
62339;DHT22;48368;53.406;6.214;2023-04-27T10:23:50;11.00;99.90
62339;DHT22;48368;53.406;6.214;2023-04-27T10:26:26;11.00;99.90
62339;DHT22;48368;53.406;6.214;2023-04-27T10:28:58;11.00;99.90
62339;DHT22;48368;53.406;6.214;2023-04-27T10:31:28;10.90;99.90
62339;DHT22;48368;53.406;6.214;2023-04-27T10:34:15;10.80;99.90
62339;DHT22;48368;53.406;6.214;2023-04-27T10:36:41;10.80;99.90
62339;DHT22;48368;53.406;6.214;2023-04-27T10:39:34;10.80;99.90
62339;DHT22;48368;53.406;6.214;2023-04-27T10:42:00;10.80;99.90
62339;DHT22;48368;53.406;6.214;2023-04-27T10:44:28;10.40;99.90
62339;DHT22;48368;53.406;6.214;2023-04-27T10:46:55;10.20;99.90
62339;DHT22;48368;53.406;6.214;2023-04-27T10:49:22;10.10;99.90
62339;DHT22;48368;53.406;6.214;2023-04-27T10:51:49;10.00;99.90
62339;DHT22;48368;53.406;6.214;2023-04-27T10:54:15;9.90;99.90
62339;DHT22;48368;53.406;6.214;2023-04-27T10:56:41;9.70;99.90
62339;DHT22;48368;53.406;6.214;2023-04-27T10:59:07;9.60;99.90
62339;DHT22;48368;53.406;6.214;2023-04-27T11:01:33;9.60;99.90
62339;DHT22;48368;53.406;6.214;2023-04-27T11:04:00;9.50;99.90
62339;DHT22;48368;53.406;6.214;2023-04-27T11:06:29;9.40;99.90
62339;DHT22;48368;53.406;6.214;2023-04-27T11:08:57;9.40;99.90
62339;DHT22;48368;53.406;6.214;2023-04-27T11:11:23;9.30;99.90
62339;DHT22;48368;53.406;6.214;2023-04-27T11:13:50;9.20;99.90
62339;DHT22;48368;53.406;6.214;2023-04-27T11:16:20;9.10;99.90
62339;DHT22;48368;53.406;6.214;2023-04-27T11:18:45;9.10;99.90
62339;DHT22;48368;53.406;6.214;2023-04-27T11:21:15;9.10;99.90
62339;DHT22;48368;53.406;6.214;2023-04-27T11:23:42;9.00;99.90
62339;DHT22;48368;53.406;6.214;2023-04-27T11:28:44;9.00;99.90
62339;DHT22;48368;53.406;6.214;2023-04-27T11:31:10;9.00;99.90
62339;DHT22;48368;53.406;6.214;2023-04-27T11:33:36;9.00;99.90
62339;DHT22;48368;53.406;6.214;2023-04-27T11:36:15;9.00;99.90
62339;DHT22;48368;53.406;6.214;2023-04-27T11:38:41;9.00;99.90
62339;DHT22;48368;53.406;6.214;2023-04-27T11:41:07;9.10;99.90
62339;DHT22;48368;53.406;6.214;2023-04-27T11:43:33;9.10;99.90
62339;DHT22;48368;53.406;6.214;2023-04-27T11:46:03;9.10;99.90
62339;DHT22;48368;53.406;6.214;2023-04-27T11:48:30;9.10;99.90
62339;DHT22;48368;53.406;6.214;2023-04-27T11:50:57;9.20;99.90
62339;DHT22;48368;53.406;6.214;2023-04-27T11:53:37;9.20;99.90
62339;DHT22;48368;53.406;6.214;2023-04-27T11:56:04;9.30;99.90
62339;DHT22;48368;53.406;6.214;2023-04-27T11:58:33;9.30;99.90
62339;DHT22;48368;53.406;6.214;2023-04-27T12:00:59;9.40;99.90
62339;DHT22;48368;53.406;6.214;2023-04-27T12:03:27;9.50;99.90
62339;DHT22;48368;53.406;6.214;2023-04-27T12:05:53;9.70;99.90
62339;DHT22;48368;53.406;6.214;2023-04-27T12:08:19;9.80;99.90
62339;DHT22;48368;53.406;6.214;2023-04-27T12:10:45;10.00;99.90
62339;DHT22;48368;53.406;6.214;2023-04-27T12:13:11;10.10;99.90
62339;DHT22;48368;53.406;6.214;2023-04-27T12:15:37;10.10;99.90
62339;DHT22;48368;53.406;6.214;2023-04-27T12:18:03;10.30;99.90
62339;DHT22;48368;53.406;6.214;2023-04-27T12:20:29;10.60;99.90
62339;DHT22;48368;53.406;6.214;2023-04-27T12:22:56;10.90;99.90
62339;DHT22;48368;53.406;6.214;2023-04-27T12:25:23;11.10;99.90
62339;DHT22;48368;53.406;6.214;2023-04-27T12:27:51;11.30;99.90
62339;DHT22;48368;53.406;6.214;2023-04-27T12:30:18;11.40;99.90
62339;DHT22;48368;53.406;6.214;2023-04-27T12:32:43;11.60;99.90
62339;DHT22;48368;53.406;6.214;2023-04-27T12:35:09;11.70;99.90
62339;DHT22;48368;53.406;6.214;2023-04-27T12:37:35;11.80;99.90
62339;DHT22;48368;53.406;6.214;2023-04-27T12:40:01;11.80;99.90
62339;DHT22;48368;53.406;6.214;2023-04-27T12:42:31;11.70;99.90
62339;DHT22;48368;53.406;6.214;2023-04-27T12:44:56;11.60;99.90
62339;DHT22;48368;53.406;6.214;2023-04-27T12:47:22;11.70;99.90
62339;DHT22;48368;53.406;6.214;2023-04-27T12:49:48;11.70;99.90
62339;DHT22;48368;53.406;6.214;2023-04-27T12:52:13;11.80;99.90
62339;DHT22;48368;53.406;6.214;2023-04-27T12:54:39;11.90;99.90
62339;DHT22;48368;53.406;6.214;2023-04-27T12:57:05;12.10;99.90
62339;DHT22;48368;53.406;6.214;2023-04-27T12:59:34;12.20;99.90
62339;DHT22;48368;53.406;6.214;2023-04-27T13:02:01;12.40;99.90
62339;DHT22;48368;53.406;6.214;2023-04-27T13:04:28;12.40;99.90
62339;DHT22;48368;53.406;6.214;2023-04-27T13:06:54;12.60;99.90
62339;DHT22;48368;53.406;6.214;2023-04-27T13:09:20;12.70;99.90
62339;DHT22;48368;53.406;6.214;2023-04-27T13:11:46;12.70;99.90
62339;DHT22;48368;53.406;6.214;2023-04-27T13:14:11;12.70;99.90
62339;DHT22;48368;53.406;6.214;2023-04-27T13:16:41;12.70;99.90
62339;DHT22;48368;53.406;6.214;2023-04-27T13:19:07;12.70;99.90
62339;DHT22;48368;53.406;6.214;2023-04-27T13:21:32;12.70;99.90
62339;DHT22;48368;53.406;6.214;2023-04-27T13:23:58;12.70;99.90
62339;DHT22;48368;53.406;6.214;2023-04-27T13:26:24;12.80;99.90
62339;DHT22;48368;53.406;6.214;2023-04-27T13:28:49;12.70;99.90
62339;DHT22;48368;53.406;6.214;2023-04-27T13:31:15;12.80;99.90
62339;DHT22;48368;53.406;6.214;2023-04-27T13:33:42;12.90;99.90
62339;DHT22;48368;53.406;6.214;2023-04-27T13:36:09;12.70;99.90
62339;DHT22;48368;53.406;6.214;2023-04-27T13:38:35;12.90;99.90
62339;DHT22;48368;53.406;6.214;2023-04-27T13:41:01;12.90;99.90
62339;DHT22;48368;53.406;6.214;2023-04-27T13:43:27;12.80;99.90
62339;DHT22;48368;53.406;6.214;2023-04-27T13:45:52;12.70;99.90
62339;DHT22;48368;53.406;6.214;2023-04-27T13:48:20;12.70;99.90
62339;DHT22;48368;53.406;6.214;2023-04-27T13:50:46;12.70;99.90
62339;DHT22;48368;53.406;6.214;2023-04-27T13:53:12;12.80;99.90
62339;DHT22;48368;53.406;6.214;2023-04-27T13:55:37;12.80;99.90
62339;DHT22;48368;53.406;6.214;2023-04-27T13:58:03;12.80;99.90
62339;DHT22;48368;53.406;6.214;2023-04-27T14:00:30;12.80;99.90
62339;DHT22;48368;53.406;6.214;2023-04-27T14:02:59;12.70;99.90
62339;DHT22;48368;53.406;6.214;2023-04-27T14:05:26;12.90;99.90
62339;DHT22;48368;53.406;6.214;2023-04-27T14:07:51;12.90;99.90
62339;DHT22;48368;53.406;6.214;2023-04-27T14:10:18;13.00;99.90
62339;DHT22;48368;53.406;6.214;2023-04-27T14:12:44;13.00;99.90
62339;DHT22;48368;53.406;6.214;2023-04-27T14:15:10;13.10;99.90
62339;DHT22;48368;53.406;6.214;2023-04-27T14:17:36;13.20;99.90
62339;DHT22;48368;53.406;6.214;2023-04-27T14:20:02;13.20;99.90
62339;DHT22;48368;53.406;6.214;2023-04-27T14:22:31;13.20;99.90
62339;DHT22;48368;53.406;6.214;2023-04-27T14:24:58;13.10;99.90
62339;DHT22;48368;53.406;6.214;2023-04-27T14:27:24;12.90;99.90
62339;DHT22;48368;53.406;6.214;2023-04-27T14:29:52;12.90;99.90
62339;DHT22;48368;53.406;6.214;2023-04-27T14:32:18;13.10;99.90
62339;DHT22;48368;53.406;6.214;2023-04-27T14:34:44;13.20;99.90
62339;DHT22;48368;53.406;6.214;2023-04-27T14:37:09;13.10;99.90
62339;DHT22;48368;53.406;6.214;2023-04-27T14:39:35;13.30;99.90
62339;DHT22;48368;53.406;6.214;2023-04-27T14:42:01;13.40;99.90
62339;DHT22;48368;53.406;6.214;2023-04-27T14:44:27;13.30;99.90
62339;DHT22;48368;53.406;6.214;2023-04-27T14:46:52;13.20;99.90
62339;DHT22;48368;53.406;6.214;2023-04-27T14:49:18;13.20;99.90
62339;DHT22;48368;53.406;6.214;2023-04-27T14:51:45;13.10;99.90
62339;DHT22;48368;53.406;6.214;2023-04-27T14:54:10;13.10;99.90
62339;DHT22;48368;53.406;6.214;2023-04-27T14:56:37;12.90;99.90
62339;DHT22;48368;53.406;6.214;2023-04-27T14:59:04;13.00;99.90
62339;DHT22;48368;53.406;6.214;2023-04-27T15:01:30;13.20;99.90
62339;DHT22;48368;53.406;6.214;2023-04-27T15:03:56;12.90;99.90
62339;DHT22;48368;53.406;6.214;2023-04-27T15:06:22;12.90;99.90
62339;DHT22;48368;53.406;6.214;2023-04-27T15:08:53;12.90;99.90
62339;DHT22;48368;53.406;6.214;2023-04-27T15:11:19;13.00;99.90
62339;DHT22;48368;53.406;6.214;2023-04-27T15:13:45;12.80;99.90
62339;DHT22;48368;53.406;6.214;2023-04-27T15:16:11;12.90;99.90
62339;DHT22;48368;53.406;6.214;2023-04-27T15:18:37;12.90;99.90
62339;DHT22;48368;53.406;6.214;2023-04-27T15:21:02;12.90;99.90
62339;DHT22;48368;53.406;6.214;2023-04-27T15:23:33;12.90;99.90
62339;DHT22;48368;53.406;6.214;2023-04-27T15:26:01;12.90;99.90
62339;DHT22;48368;53.406;6.214;2023-04-27T15:28:28;12.80;99.90
62339;DHT22;48368;53.406;6.214;2023-04-27T15:30:54;12.70;99.90
62339;DHT22;48368;53.406;6.214;2023-04-27T15:33:20;12.80;99.90
62339;DHT22;48368;53.406;6.214;2023-04-27T15:35:46;12.70;99.90
62339;DHT22;48368;53.406;6.214;2023-04-27T15:38:13;12.70;99.90
62339;DHT22;48368;53.406;6.214;2023-04-27T15:40:39;12.70;99.90
62339;DHT22;48368;53.406;6.214;2023-04-27T15:43:05;12.60;99.90
62339;DHT22;48368;53.406;6.214;2023-04-27T15:45:31;12.60;99.90
62339;DHT22;48368;53.406;6.214;2023-04-27T15:47:57;12.60;99.90
62339;DHT22;48368;53.406;6.214;2023-04-27T15:50:23;12.60;99.90